createdAt,value
2018-05-13T12:09:59.451Z,24.49
2018-05-13T12:10:59.411Z,24.49
2018-05-13T12:11:59.391Z,24.51
2018-05-13T12:12:59.370Z,24.61
2018-05-13T12:13:59.356Z,24.64
2018-05-13T12:14:59.329Z,24.75
2018-05-13T12:15:59.312Z,24.70
2018-05-13T12:16:59.295Z,24.82
2018-05-13T12:17:59.275Z,24.93
2018-05-13T12:18:59.261Z,24.94
2018-05-13T12:19:59.244Z,25.01
2018-05-13T12:20:59.227Z,25.29
2018-05-13T12:21:59.204Z,25.30
2018-05-13T12:22:59.193Z,25.23
2018-05-13T12:23:59.161Z,25.24
2018-05-13T12:24:59.152Z,25.34
2018-05-13T12:25:59.126Z,25.37
2018-05-13T12:26:59.127Z,25.24
2018-05-13T12:27:59.090Z,25.23
2018-05-13T12:28:59.167Z,25.20
2018-05-13T12:29:59.057Z,25.09
2018-05-13T12:30:59.050Z,25.12
2018-05-13T12:31:59.019Z,25.00
2018-05-13T12:32:58.996Z,24.59
2018-05-13T12:33:58.980Z,24.29
2018-05-13T12:34:58.975Z,24.02
2018-05-13T12:35:58.949Z,23.90
2018-05-13T12:36:58.932Z,23.97
2018-05-13T12:37:58.940Z,23.74
2018-05-13T12:38:58.889Z,23.70
2018-05-13T12:39:58.873Z,23.60
2018-05-13T12:40:58.848Z,23.53
2018-05-13T12:41:58.833Z,23.34
2018-05-13T12:42:58.818Z,23.38
2018-05-13T12:43:58.794Z,23.32
2018-05-13T12:44:58.772Z,23.35
2018-05-13T12:45:58.752Z,23.47
2018-05-13T12:46:58.736Z,23.37
2018-05-13T12:47:58.718Z,23.40
2018-05-13T12:48:58.701Z,23.50
2018-05-13T12:49:58.681Z,23.48
2018-05-13T12:50:58.658Z,23.37
2018-05-13T12:51:58.635Z,23.35
2018-05-13T12:52:58.618Z,23.37
2018-05-13T12:53:58.600Z,23.21
2018-05-13T12:54:58.578Z,23.16
2018-05-13T12:55:58.556Z,23.44
2018-05-13T12:56:58.537Z,23.18
2018-05-13T12:57:58.519Z,23.15
2018-05-13T12:58:58.503Z,23.35
2018-05-13T12:59:58.482Z,23.42
2018-05-13T13:00:58.455Z,23.40
2018-05-13T13:01:58.443Z,23.40
2018-05-13T13:02:58.420Z,23.22
2018-05-13T13:03:58.395Z,23.10
2018-05-13T13:04:58.384Z,22.86
2018-05-13T13:05:58.359Z,22.78
2018-05-13T13:06:58.406Z,22.66
2018-05-13T13:07:58.320Z,22.41
2018-05-13T13:08:58.304Z,22.16
2018-05-13T13:09:58.277Z,22.04
2018-05-13T13:10:58.265Z,21.82
2018-05-13T13:11:58.238Z,21.71
2018-05-13T13:12:58.275Z,21.67
2018-05-13T13:13:58.193Z,21.40
2018-05-13T13:14:58.185Z,21.11
2018-05-13T13:15:58.160Z,20.85
2018-05-13T13:16:58.144Z,20.41
2018-05-13T13:17:58.121Z,19.89
2018-05-13T13:18:58.093Z,19.46
2018-05-13T13:19:58.099Z,19.09
2018-05-13T13:20:58.052Z,18.78
2018-05-13T13:21:58.033Z,18.34
2018-05-13T13:22:58.015Z,18.26
2018-05-13T13:23:57.993Z,18.08
2018-05-13T13:24:57.971Z,17.86
2018-05-13T13:25:58.019Z,17.80
2018-05-13T13:26:57.929Z,17.60
2018-05-13T13:27:57.899Z,17.52
2018-05-13T13:28:57.881Z,17.40
2018-05-13T13:29:57.861Z,17.46
2018-05-13T13:30:57.828Z,17.49
2018-05-13T13:31:57.820Z,17.50
2018-05-13T13:32:57.781Z,17.45
2018-05-13T13:33:57.759Z,17.42
2018-05-13T13:34:57.745Z,17.45
2018-05-13T13:35:57.711Z,17.50
2018-05-13T13:36:57.697Z,17.58
2018-05-13T13:37:57.665Z,17.50
2018-05-13T13:38:57.651Z,17.47
2018-05-13T13:39:57.620Z,17.39
2018-05-13T13:40:57.598Z,17.28
2018-05-13T13:41:57.581Z,17.31
2018-05-13T13:42:57.559Z,17.30
2018-05-13T13:43:57.538Z,17.27
2018-05-13T13:44:57.503Z,17.21
2018-05-13T13:45:57.482Z,17.22
2018-05-13T13:46:57.456Z,17.20
2018-05-13T13:47:57.441Z,17.24
2018-05-13T13:48:57.410Z,17.20
2018-05-13T13:49:57.385Z,17.18
2018-05-13T13:50:57.365Z,17.05
2018-05-13T13:51:57.337Z,17.05
2018-05-13T13:52:57.316Z,17.18
2018-05-13T13:53:57.291Z,17.12
2018-05-13T13:54:57.268Z,17.03
2018-05-13T13:55:57.250Z,17.10
2018-05-13T13:56:57.226Z,17.06
2018-05-13T13:57:57.199Z,17.05
2018-05-13T13:58:57.173Z,17.12
2018-05-13T13:59:57.144Z,17.00
2018-05-13T14:00:57.129Z,17.00
2018-05-13T14:01:57.111Z,16.94
2018-05-13T14:02:57.075Z,16.95
2018-05-13T14:03:57.051Z,16.82
2018-05-13T14:04:57.039Z,16.82
2018-05-13T14:05:57.004Z,16.80
2018-05-13T14:06:56.987Z,16.77
2018-05-13T14:07:56.961Z,16.82
2018-05-13T14:08:56.938Z,16.80
2018-05-13T14:09:56.918Z,16.67
2018-05-13T14:10:56.886Z,16.67
2018-05-13T14:11:56.894Z,16.70
2018-05-13T14:12:56.845Z,16.66
2018-05-13T14:13:56.822Z,16.66
2018-05-13T14:14:56.793Z,16.67
2018-05-13T14:15:56.769Z,16.57
2018-05-13T14:16:56.745Z,16.55
2018-05-13T14:17:56.723Z,16.55
2018-05-13T14:18:56.695Z,16.58
2018-05-13T14:19:56.671Z,16.58
2018-05-13T14:20:56.653Z,16.59
2018-05-13T14:21:56.623Z,16.62
2018-05-13T14:22:56.603Z,16.58
2018-05-13T14:23:56.656Z,16.58
2018-05-13T14:24:56.554Z,16.57
2018-05-13T14:25:56.534Z,16.58
2018-05-13T14:26:56.575Z,16.52
2018-05-13T14:27:56.483Z,16.58
2018-05-13T14:28:56.463Z,16.52
2018-05-13T14:29:56.431Z,16.54
2018-05-13T14:30:56.416Z,16.55
2018-05-13T14:31:56.388Z,16.49
2018-05-13T14:32:56.450Z,16.58
2018-05-13T14:33:56.337Z,16.54
2018-05-13T14:34:56.316Z,16.51
2018-05-13T14:35:56.294Z,16.52
2018-05-13T14:36:56.269Z,16.55
2018-05-13T14:37:56.273Z,16.47
2018-05-13T14:38:56.219Z,16.40
2018-05-13T14:39:56.197Z,16.40
2018-05-13T14:40:56.258Z,16.40
2018-05-13T14:41:56.149Z,16.40
2018-05-13T14:42:56.135Z,16.42
2018-05-13T14:43:56.096Z,16.45
2018-05-13T14:44:56.083Z,16.39
2018-05-13T14:45:56.057Z,16.42
2018-05-13T14:46:56.027Z,16.37
2018-05-13T14:47:56.054Z,16.27
2018-05-13T14:48:55.980Z,16.26
2018-05-13T14:49:55.956Z,16.22
2018-05-13T14:50:55.943Z,16.21
2018-05-13T14:51:55.913Z,16.14
2018-05-13T14:52:55.886Z,16.14
2018-05-13T14:53:55.868Z,16.11
2018-05-13T14:54:55.833Z,16.06
2018-05-13T14:55:55.822Z,16.08
2018-05-13T14:56:55.795Z,16.02
2018-05-13T14:57:55.770Z,15.93
2018-05-13T14:58:55.780Z,16.02
2018-05-13T14:59:55.719Z,15.92
2018-05-13T15:00:55.769Z,15.95
2018-05-13T15:01:55.728Z,15.99
2018-05-13T15:02:55.784Z,15.96
2018-05-13T15:03:55.713Z,15.93
2018-05-13T15:04:56.663Z,15.96
2018-05-13T15:05:55.677Z,15.95
2018-05-13T15:06:55.621Z,15.92
2018-05-13T15:07:55.587Z,15.89
2018-05-13T15:08:55.581Z,15.88
2018-05-13T15:09:55.526Z,15.92
2018-05-13T15:10:55.501Z,16.00
2018-05-13T15:11:55.491Z,15.91
2018-05-13T15:12:55.470Z,15.84
2018-05-13T15:13:55.387Z,15.81
2018-05-13T15:14:55.366Z,15.91
2018-05-13T15:15:55.414Z,15.93
2018-05-13T15:16:55.315Z,15.95
2018-05-13T15:17:55.295Z,15.96
2018-05-13T15:18:55.365Z,15.91
2018-05-13T15:19:55.304Z,15.98
2018-05-13T15:20:55.214Z,15.99
2018-05-13T15:21:55.196Z,15.93
2018-05-13T15:22:55.168Z,16.00
2018-05-13T15:23:55.150Z,15.92
2018-05-13T15:24:55.150Z,15.81
2018-05-13T15:25:55.096Z,15.78
2018-05-13T15:26:55.079Z,15.93
2018-05-13T15:27:55.071Z,15.84
2018-05-13T15:28:55.050Z,15.83
2018-05-13T15:29:55.010Z,15.83
2018-05-13T15:30:54.979Z,15.80
2018-05-13T15:31:54.954Z,15.86
2018-05-13T15:32:54.932Z,15.81
2018-05-13T15:33:54.903Z,15.86
2018-05-13T15:34:54.888Z,15.73
2018-05-13T15:35:54.860Z,15.84
2018-05-13T15:36:54.835Z,15.81
2018-05-13T15:37:54.825Z,15.78
2018-05-13T15:38:54.783Z,15.71
2018-05-13T15:39:54.770Z,15.75
2018-05-13T15:40:54.734Z,15.84
2018-05-13T15:41:54.711Z,15.78
2018-05-13T15:42:54.793Z,15.78
2018-05-13T15:43:54.669Z,15.78
2018-05-13T15:44:54.648Z,15.73
2018-05-13T15:45:54.617Z,15.68
2018-05-13T15:46:54.602Z,15.65
2018-05-13T15:47:54.566Z,15.75
2018-05-13T15:48:54.551Z,15.71
2018-05-13T15:49:54.566Z,15.70
2018-05-13T15:50:54.495Z,15.71
2018-05-13T15:51:54.479Z,15.70
2018-05-13T15:52:54.446Z,15.62
2018-05-13T15:53:54.425Z,15.60
2018-05-13T15:54:54.509Z,15.65
2018-05-13T15:55:54.383Z,15.70
2018-05-13T15:56:54.358Z,15.70
2018-05-13T15:57:54.338Z,15.68
2018-05-13T15:58:54.303Z,15.74
2018-05-13T15:59:54.286Z,15.68
2018-05-13T16:00:54.256Z,15.63
2018-05-13T16:01:54.235Z,15.67
2018-05-13T16:02:54.215Z,15.74
2018-05-13T16:03:54.216Z,15.77
2018-05-13T16:04:54.198Z,15.70
2018-05-13T16:05:54.140Z,15.70
2018-05-13T16:06:54.117Z,15.73
2018-05-13T16:07:54.086Z,15.74
2018-05-13T16:08:54.068Z,15.74
2018-05-13T16:09:54.056Z,15.68
2018-05-13T16:10:54.017Z,15.71
2018-05-13T16:11:53.995Z,15.83
2018-05-13T16:12:53.961Z,15.80
2018-05-13T16:13:53.949Z,15.80
2018-05-13T16:14:53.961Z,15.77
2018-05-13T16:15:53.924Z,15.68
2018-05-13T16:16:53.876Z,15.80
2018-05-13T16:17:53.853Z,15.74
2018-05-13T16:18:53.940Z,15.74
2018-05-13T16:19:53.824Z,15.78
2018-05-13T16:20:53.776Z,15.70
2018-05-13T16:21:53.747Z,15.71
2018-05-13T16:22:53.722Z,15.77
2018-05-13T16:23:53.709Z,15.71
2018-05-13T16:24:53.690Z,15.58
2018-05-13T16:25:53.656Z,15.49
2018-05-13T16:26:53.639Z,15.49
2018-05-13T16:27:53.604Z,15.51
2018-05-13T16:28:53.583Z,15.40
2018-05-13T16:29:53.551Z,15.44
2018-05-13T16:30:53.532Z,15.38
2018-05-13T16:31:53.503Z,15.43
2018-05-13T16:32:53.696Z,15.35
2018-05-13T16:33:53.456Z,15.40
2018-05-13T16:34:53.455Z,15.45
2018-05-13T16:35:53.414Z,15.41
2018-05-13T16:36:53.392Z,15.38
2018-05-13T16:37:53.384Z,15.38
2018-05-13T16:38:53.340Z,15.44
2018-05-13T16:39:53.323Z,15.45
2018-05-13T16:40:53.293Z,15.37
2018-05-13T16:41:53.327Z,15.38
2018-05-13T16:42:53.250Z,15.41
2018-05-13T16:43:53.315Z,15.43
2018-05-13T16:44:53.200Z,15.41
2018-05-13T16:45:53.173Z,15.41
2018-05-13T16:46:53.154Z,15.43
2018-05-13T16:47:53.120Z,15.40
2018-05-13T16:48:53.111Z,15.45
2018-05-13T16:49:53.075Z,15.37
2018-05-13T16:50:53.047Z,15.38
2018-05-13T16:51:53.024Z,15.45
2018-05-13T16:52:53.004Z,15.43
2018-05-13T16:53:53.020Z,15.38
2018-05-13T16:54:52.962Z,15.37
2018-05-13T16:55:52.932Z,15.47
2018-05-13T16:56:52.905Z,15.41
2018-05-13T16:57:52.877Z,15.41
2018-05-13T16:58:52.873Z,15.37
2018-05-13T16:59:52.927Z,15.40
2018-05-13T17:00:52.808Z,15.37
2018-05-13T17:01:52.782Z,15.35
2018-05-13T17:02:52.766Z,15.41
2018-05-13T17:03:52.781Z,15.38
2018-05-13T17:04:52.707Z,15.37
2018-05-13T17:05:52.719Z,15.44
2018-05-13T17:06:52.715Z,15.43
2018-05-13T17:07:52.737Z,15.40
2018-05-13T17:08:52.629Z,15.41
2018-05-13T17:09:52.593Z,15.43
2018-05-13T17:10:52.561Z,15.37
2018-05-13T17:11:52.541Z,15.38
2018-05-13T17:12:52.532Z,15.43
2018-05-13T17:13:52.486Z,15.43
2018-05-13T17:14:52.472Z,15.40
2018-05-13T17:15:52.444Z,15.47
2018-05-13T17:16:52.427Z,15.53
2018-05-13T17:17:52.391Z,15.40
2018-05-13T17:18:52.372Z,15.53
2018-05-13T17:19:52.351Z,15.58
2018-05-13T17:20:52.324Z,15.59
2018-05-13T17:21:52.304Z,15.55
2018-05-13T17:22:52.289Z,15.59
2018-05-13T17:23:52.260Z,15.52
2018-05-13T17:24:52.225Z,15.53
2018-05-13T17:25:52.198Z,15.62
2018-05-13T17:26:52.182Z,15.59
2018-05-13T17:27:52.148Z,15.62
2018-05-13T17:28:52.134Z,15.58
2018-05-13T17:29:52.141Z,15.62
2018-05-13T17:30:52.081Z,15.62
2018-05-13T17:31:52.055Z,15.58
2018-05-13T17:32:52.038Z,15.59
2018-05-13T17:33:52.010Z,15.71
2018-05-13T17:34:51.982Z,15.70
2018-05-13T17:35:51.959Z,15.68
2018-05-13T17:36:51.933Z,15.65
2018-05-13T17:37:51.913Z,15.63
2018-05-13T17:38:51.886Z,15.59
2018-05-13T17:39:51.869Z,15.70
2018-05-13T17:40:51.842Z,15.67
2018-05-13T17:41:51.814Z,15.70
2018-05-13T17:42:51.792Z,15.62
2018-05-13T17:43:51.766Z,15.58
2018-05-13T17:44:51.744Z,15.60
2018-05-13T17:45:51.714Z,15.63
2018-05-13T17:46:51.699Z,15.51
2018-05-13T17:47:51.726Z,15.55
2018-05-13T17:48:51.653Z,15.60
2018-05-13T17:49:51.714Z,15.73
2018-05-13T17:50:51.600Z,15.63
2018-05-13T17:51:51.588Z,15.71
2018-05-13T17:52:51.547Z,15.74
2018-05-13T17:53:51.525Z,15.84
2018-05-13T17:54:51.505Z,15.81
2018-05-13T17:55:51.486Z,15.86
2018-05-13T17:56:51.450Z,15.74
2018-05-13T17:57:51.436Z,15.77
2018-05-13T17:58:51.593Z,15.80
2018-05-13T17:59:51.378Z,15.74
2018-05-13T18:00:51.396Z,15.81
2018-05-13T18:01:51.334Z,15.78
2018-05-13T18:02:51.309Z,15.77
2018-05-13T18:03:51.288Z,15.89
2018-05-13T18:04:51.268Z,15.81
2018-05-13T18:05:51.235Z,15.93
2018-05-13T18:06:51.278Z,15.91
2018-05-13T18:07:51.188Z,15.81
2018-05-13T18:08:51.168Z,15.84
2018-05-13T18:09:51.141Z,15.89
2018-05-13T18:10:51.127Z,15.84
2018-05-13T18:11:51.099Z,15.99
2018-05-13T18:12:51.071Z,15.95
2018-05-13T18:13:51.055Z,15.93
2018-05-13T18:14:51.030Z,15.96
2018-05-13T18:15:51.007Z,15.95
2018-05-13T18:16:50.980Z,15.93
2018-05-13T18:17:50.953Z,15.96
2018-05-13T18:18:50.936Z,16.00
2018-05-13T18:19:50.908Z,15.91
2018-05-13T18:20:50.881Z,15.93
2018-05-13T18:21:50.856Z,15.95
2018-05-13T18:22:50.856Z,15.93
2018-05-13T18:23:50.823Z,15.92
2018-05-13T18:24:50.853Z,15.95
2018-05-13T18:25:50.762Z,15.95
2018-05-13T18:26:50.740Z,16.02
2018-05-13T18:27:50.715Z,15.92
2018-05-13T18:28:50.699Z,15.84
2018-05-13T18:29:50.670Z,15.88
2018-05-13T18:30:50.646Z,15.84
2018-05-13T18:31:50.626Z,15.89
2018-05-13T18:32:50.593Z,15.89
2018-05-13T18:33:50.578Z,15.81
2018-05-13T18:34:50.558Z,15.81
2018-05-13T18:35:50.522Z,15.83
2018-05-13T18:36:50.501Z,15.73
2018-05-13T18:37:50.476Z,15.75
2018-05-13T18:38:50.463Z,15.74
2018-05-13T18:39:50.429Z,15.77
2018-05-13T18:40:50.406Z,15.77
2018-05-13T18:41:50.378Z,15.81
2018-05-13T18:42:50.370Z,15.84
2018-05-13T18:43:50.329Z,15.86
2018-05-13T18:44:50.316Z,15.86
2018-05-13T18:45:50.289Z,15.78
2018-05-13T18:46:50.256Z,15.81
2018-05-13T18:47:50.240Z,15.83
2018-05-13T18:48:50.263Z,15.77
2018-05-13T18:49:50.190Z,15.77
2018-05-13T18:50:50.163Z,15.80
2018-05-13T18:51:50.143Z,15.78
2018-05-13T18:52:50.116Z,15.74
2018-05-13T18:53:50.092Z,15.80
2018-05-13T18:54:50.068Z,15.80
2018-05-13T18:55:50.052Z,15.78
2018-05-13T18:56:50.020Z,15.77
2018-05-13T18:57:49.999Z,15.81
2018-05-13T18:58:50.063Z,15.84
2018-05-13T18:59:49.960Z,15.81
2018-05-13T19:00:49.921Z,15.83
2018-05-13T19:01:49.915Z,15.89
2018-05-13T19:02:49.879Z,15.80
2018-05-13T19:03:49.852Z,15.81
2018-05-13T19:04:49.836Z,15.80
2018-05-13T19:05:49.822Z,15.77
2018-05-13T19:06:49.781Z,15.78
2018-05-13T19:07:49.757Z,15.74
2018-05-13T19:08:49.742Z,15.78
2018-05-13T19:09:49.708Z,15.71
2018-05-13T19:10:49.704Z,15.70
2018-05-13T19:11:49.666Z,15.65
2018-05-13T19:12:49.644Z,15.53
2018-05-13T19:13:49.621Z,15.59
2018-05-13T19:14:49.595Z,15.53
2018-05-13T19:15:49.564Z,15.62
2018-05-13T19:16:49.552Z,15.51
2018-05-13T19:17:49.521Z,15.52
2018-05-13T19:18:49.500Z,15.52
2018-05-13T19:19:49.478Z,15.49
2018-05-13T19:20:49.445Z,15.52
2018-05-13T19:21:49.426Z,15.59
2018-05-13T19:22:49.409Z,15.55
2018-05-13T19:23:49.375Z,15.49
2018-05-13T19:24:49.395Z,15.43
2018-05-13T19:25:49.336Z,15.41
2018-05-13T19:26:49.301Z,15.44
2018-05-13T19:27:49.285Z,15.35
2018-05-13T19:28:49.254Z,15.38
2018-05-13T19:29:49.240Z,15.27
2018-05-13T19:30:49.257Z,15.31
2018-05-13T19:31:49.189Z,15.33
2018-05-13T19:32:49.156Z,15.16
2018-05-13T19:33:49.135Z,15.23
2018-05-13T19:34:49.121Z,15.25
2018-05-13T19:35:49.086Z,15.19
2018-05-13T19:36:49.157Z,15.19
2018-05-13T19:37:49.038Z,15.18
2018-05-13T19:38:49.031Z,15.26
2018-05-13T19:39:48.995Z,15.23
2018-05-13T19:40:48.969Z,15.26
2018-05-13T19:41:48.949Z,15.25
2018-05-13T19:42:48.928Z,15.27
2018-05-13T19:43:48.896Z,15.22
2018-05-13T19:44:48.870Z,15.27
2018-05-13T19:45:48.843Z,15.22
2018-05-13T19:46:48.828Z,15.16
2018-05-13T19:47:48.802Z,15.18
2018-05-13T19:48:48.776Z,15.27
2018-05-13T19:49:48.757Z,15.20
2018-05-13T19:50:48.812Z,15.18
2018-05-13T19:51:48.707Z,15.25
2018-05-13T19:52:48.679Z,15.08
2018-05-13T19:53:48.656Z,15.13
2018-05-13T19:54:48.629Z,15.16
2018-05-13T19:55:48.711Z,15.12
2018-05-13T19:56:48.673Z,15.13
2018-05-13T19:57:48.556Z,15.08
2018-05-13T19:58:48.588Z,15.10
2018-05-13T19:59:48.591Z,15.12
2018-05-13T20:00:48.534Z,15.10
2018-05-13T20:01:48.517Z,15.07
2018-05-13T20:02:48.599Z,15.04
2018-05-13T20:03:48.625Z,15.02
2018-05-13T20:04:48.432Z,14.93
2018-05-13T20:05:48.417Z,15.02
2018-05-13T20:06:48.413Z,15.10
2018-05-13T20:07:48.318Z,15.02
2018-05-13T20:08:49.073Z,15.10
2018-05-13T20:09:48.374Z,15.12
2018-05-13T20:10:48.242Z,15.16
2018-05-13T20:11:48.275Z,15.10
2018-05-13T20:12:48.261Z,15.10
2018-05-13T20:13:48.221Z,15.02
2018-05-13T20:14:48.152Z,15.08
2018-05-13T20:15:48.183Z,15.10
2018-05-13T20:16:48.153Z,15.08
2018-05-13T20:17:48.077Z,15.05
2018-05-13T20:18:48.049Z,15.05
2018-05-13T20:19:48.075Z,15.04
2018-05-13T20:20:48.002Z,15.13
2018-05-13T20:21:48.010Z,15.19
2018-05-13T20:22:48.045Z,15.10
2018-05-13T20:23:47.932Z,15.22
2018-05-13T20:24:47.964Z,15.19
2018-05-13T20:25:47.931Z,15.23
2018-05-13T20:26:47.912Z,15.16
2018-05-13T20:27:47.854Z,15.15
2018-05-13T20:28:47.872Z,15.07
2018-05-13T20:29:47.784Z,15.04
2018-05-13T20:30:47.764Z,15.02
2018-05-13T20:31:47.800Z,15.05
2018-05-13T20:32:47.782Z,15.01
2018-05-13T20:33:47.748Z,15.08
2018-05-13T20:34:47.724Z,15.08
2018-05-13T20:35:47.678Z,15.07
2018-05-13T20:36:47.618Z,15.00
2018-05-13T20:37:47.658Z,15.05
2018-05-13T20:38:47.629Z,15.05
2018-05-13T20:39:47.604Z,15.01
2018-05-13T20:40:47.518Z,15.04
2018-05-13T20:41:47.485Z,15.10
2018-05-13T20:42:47.514Z,15.16
2018-05-13T20:43:47.437Z,14.93
2018-05-13T20:44:47.421Z,15.04
2018-05-13T20:45:47.461Z,15.05
2018-05-13T20:46:47.427Z,15.04
2018-05-13T20:47:47.411Z,15.10
2018-05-13T20:48:47.327Z,15.12
2018-05-13T20:49:47.296Z,15.16
2018-05-13T20:50:47.329Z,15.13
2018-05-13T20:51:47.251Z,15.13
2018-05-13T20:52:47.268Z,15.19
2018-05-13T20:53:47.212Z,15.15
2018-05-13T20:54:47.174Z,15.12
2018-05-13T20:55:47.205Z,15.04
2018-05-13T20:56:47.134Z,15.01
2018-05-13T20:57:47.204Z,15.04
2018-05-13T20:58:47.081Z,15.01
2018-05-13T20:59:47.119Z,15.10
2018-05-13T21:00:47.029Z,15.13
2018-05-13T21:01:47.009Z,15.15
2018-05-13T21:02:47.059Z,15.15
2018-05-13T21:03:46.959Z,15.19
2018-05-13T21:04:46.994Z,15.10
2018-05-13T21:05:46.911Z,15.15
2018-05-13T21:06:46.900Z,15.15
2018-05-13T21:07:46.862Z,15.19
2018-05-13T21:08:46.899Z,15.19
2018-05-13T21:09:46.818Z,15.16
2018-05-13T21:10:46.834Z,15.22
2018-05-13T21:11:46.802Z,15.12
2018-05-13T21:12:46.734Z,15.15
2018-05-13T21:13:46.718Z,15.20
2018-05-13T21:14:46.696Z,15.16
2018-05-13T21:15:46.721Z,15.13
2018-05-13T21:16:46.698Z,15.16
2018-05-13T21:17:46.712Z,15.19
2018-05-13T21:18:46.649Z,15.13
2018-05-13T21:19:46.571Z,15.13
2018-05-13T21:20:46.586Z,15.16
2018-05-13T21:21:46.577Z,15.12
2018-05-13T21:22:46.496Z,15.16
2018-05-13T21:23:46.484Z,15.19
2018-05-13T21:24:46.446Z,15.13
2018-05-13T21:25:46.476Z,15.15
2018-05-13T21:26:46.407Z,15.22
2018-05-13T21:27:46.375Z,15.10
2018-05-13T21:28:46.357Z,15.16
2018-05-13T21:29:46.329Z,15.12
2018-05-13T21:30:46.301Z,15.18
2018-05-13T21:31:46.288Z,15.12
2018-05-13T21:32:46.260Z,15.19
2018-05-13T21:33:46.240Z,15.18
2018-05-13T21:34:46.214Z,15.10
2018-05-13T21:35:46.180Z,15.12
2018-05-13T21:36:46.159Z,15.15
2018-05-13T21:37:46.132Z,15.15
2018-05-13T21:38:46.119Z,15.15
2018-05-13T21:39:46.091Z,15.10
2018-05-13T21:40:46.066Z,15.12
2018-05-13T21:41:46.053Z,15.16
2018-05-13T21:42:46.014Z,15.12
2018-05-13T21:43:45.991Z,15.13
2018-05-13T21:44:45.967Z,15.19
2018-05-13T21:45:45.939Z,15.16
2018-05-13T21:46:45.933Z,15.18
2018-05-13T21:47:47.086Z,15.08
2018-05-13T21:48:45.878Z,15.16
2018-05-13T21:49:45.853Z,15.10
2018-05-13T21:50:45.829Z,15.15
2018-05-13T21:51:45.797Z,15.13
2018-05-13T21:52:45.773Z,15.20
2018-05-13T21:53:45.750Z,15.27
2018-05-13T21:54:45.727Z,15.33
2018-05-13T21:55:45.701Z,15.35
2018-05-13T21:56:45.709Z,15.34
2018-05-13T21:57:45.657Z,15.38
2018-05-13T21:58:45.629Z,15.45
2018-05-13T21:59:45.609Z,15.49
2018-05-13T22:00:45.584Z,15.40
2018-05-13T22:01:45.556Z,15.40
2018-05-13T22:02:45.541Z,15.45
2018-05-13T22:03:45.509Z,15.47
2018-05-13T22:04:45.480Z,15.43
2018-05-13T22:05:45.506Z,15.43
2018-05-13T22:06:45.482Z,15.43
2018-05-13T22:07:45.420Z,15.41
2018-05-13T22:08:45.388Z,15.43
2018-05-13T22:09:45.366Z,15.35
2018-05-13T22:10:45.341Z,15.35
2018-05-13T22:11:45.320Z,15.38
2018-05-13T22:12:45.298Z,15.34
2018-05-13T22:13:45.271Z,15.30
2018-05-13T22:14:45.246Z,15.23
2018-05-13T22:15:45.223Z,15.23
2018-05-13T22:16:45.197Z,15.37
2018-05-13T22:17:45.177Z,15.23
2018-05-13T22:18:45.158Z,15.22
2018-05-13T22:19:45.119Z,15.26
2018-05-13T22:20:45.105Z,15.19
2018-05-13T22:21:45.081Z,15.16
2018-05-13T22:22:45.049Z,15.16
2018-05-13T22:23:45.026Z,15.15
2018-05-13T22:24:45.024Z,15.20
2018-05-13T22:25:45.043Z,15.16
2018-05-13T22:26:44.988Z,15.23
2018-05-13T22:27:44.936Z,15.18
2018-05-13T22:28:44.907Z,15.12
2018-05-13T22:29:44.883Z,15.18
2018-05-13T22:30:44.865Z,15.19
2018-05-13T22:31:44.832Z,15.22
2018-05-13T22:32:44.816Z,15.18
2018-05-13T22:33:44.786Z,15.23
2018-05-13T22:34:44.767Z,15.26
2018-05-13T22:35:44.740Z,15.25
2018-05-13T22:36:44.719Z,15.18
2018-05-13T22:37:44.692Z,15.18
2018-05-13T22:38:44.675Z,15.22
2018-05-13T22:39:44.641Z,15.25
2018-05-13T22:40:44.619Z,15.19
2018-05-13T22:41:44.595Z,15.23
2018-05-13T22:42:44.581Z,15.22
2018-05-13T22:43:44.548Z,15.30
2018-05-13T22:44:44.531Z,15.33
2018-05-13T22:45:44.504Z,15.33
2018-05-13T22:46:44.479Z,15.23
2018-05-13T22:47:44.461Z,15.23
2018-05-13T22:48:44.434Z,15.23
2018-05-13T22:49:44.413Z,15.31
2018-05-13T22:50:44.383Z,15.33
2018-05-13T22:51:44.353Z,15.22
2018-05-13T22:52:44.351Z,15.31
2018-05-13T22:53:44.310Z,15.26
2018-05-13T22:54:44.288Z,15.20
2018-05-13T22:55:44.269Z,15.30
2018-05-13T22:56:44.232Z,15.27
2018-05-13T22:57:44.251Z,15.30
2018-05-13T22:58:44.186Z,15.27
2018-05-13T22:59:44.172Z,15.23
2018-05-13T23:00:44.143Z,15.23
2018-05-13T23:01:44.120Z,15.35
2018-05-13T23:02:44.100Z,15.35
2018-05-13T23:03:44.071Z,15.35
2018-05-13T23:04:44.045Z,15.25
2018-05-13T23:05:44.033Z,15.30
2018-05-13T23:06:44.008Z,15.26
2018-05-13T23:07:43.973Z,15.16
2018-05-13T23:08:43.955Z,15.23
2018-05-13T23:09:48.026Z,15.23
2018-05-13T23:10:43.901Z,15.25
2018-05-13T23:11:43.881Z,15.20
2018-05-13T23:12:43.857Z,15.23
2018-05-13T23:13:43.828Z,15.26
2018-05-13T23:14:43.813Z,15.20
2018-05-13T23:15:43.780Z,15.20
2018-05-13T23:16:43.764Z,15.15
2018-05-13T23:17:43.740Z,15.20
2018-05-13T23:18:43.711Z,15.22
2018-05-13T23:19:43.692Z,15.15
2018-05-13T23:20:43.662Z,15.26
2018-05-13T23:21:43.636Z,15.19
2018-05-13T23:22:43.614Z,15.18
2018-05-13T23:23:43.589Z,15.20
2018-05-13T23:24:43.572Z,15.23
2018-05-13T23:25:43.552Z,15.19
2018-05-13T23:26:43.523Z,15.23
2018-05-13T23:27:43.495Z,15.22
2018-05-13T23:28:43.473Z,15.16
2018-05-13T23:29:43.447Z,15.26
2018-05-13T23:30:43.426Z,15.23
2018-05-13T23:31:43.404Z,15.23
2018-05-13T23:32:43.375Z,15.16
2018-05-13T23:33:43.358Z,15.20
2018-05-13T23:34:43.327Z,15.22
2018-05-13T23:35:43.300Z,15.25
2018-05-13T23:36:43.286Z,15.20
2018-05-13T23:37:43.266Z,15.26
2018-05-13T23:38:43.240Z,15.31
2018-05-13T23:39:43.213Z,15.22
2018-05-13T23:40:43.183Z,15.26
2018-05-13T23:41:43.167Z,15.19
2018-05-13T23:42:43.143Z,15.27
2018-05-13T23:43:43.118Z,15.19
2018-05-13T23:44:43.095Z,15.23
2018-05-13T23:45:43.066Z,15.33
2018-05-13T23:46:43.039Z,15.35
2018-05-13T23:47:43.012Z,15.35
2018-05-13T23:48:42.999Z,15.35
2018-05-13T23:49:42.968Z,15.41
2018-05-13T23:50:42.947Z,15.41
2018-05-13T23:51:42.926Z,15.33
2018-05-13T23:52:42.898Z,15.25
2018-05-13T23:53:42.877Z,15.26
2018-05-13T23:54:42.855Z,15.38
2018-05-13T23:55:42.822Z,15.23
2018-05-13T23:56:42.807Z,15.25
2018-05-13T23:57:42.778Z,15.30
2018-05-13T23:58:42.764Z,15.25
2018-05-13T23:59:42.734Z,15.35
